Time;durP1;ratioP1;P1;durP2;ratioP2;P2;SDS_P1;SDS_P2;PMS_P1;PMS_P2;Temp;Humidity;BMP_temperature;BMP_pressure;BME280_temperature;BME280_humidity;BME280_pressure;Samples;Min_cycle;Max_cycle;Signal;HPM_P1;HPM_P2
2022/12/30 00:00:37;;;;;;;13.82;9.10;;;;;;;;;;5014713;28;20076;-64
2022/12/30 00:03:02;;;;;;;12.30;9.13;;;;;;;;;;5014807;28;20055;-64
2022/12/30 00:05:28;;;;;;;14.20;9.63;;;;;;;;;;5012498;28;20508;-64
2022/12/30 00:07:54;;;;;;;14.02;8.93;;;;;;;;;;5012237;28;20101;-64
2022/12/30 00:10:19;;;;;;;11.95;9.18;;;;;;;;;;5014585;28;20038;-64
2022/12/30 00:35:24;;;;;;;12.55;8.77;;;;;;;;;;4993947;28;20109;-64
2022/12/30 00:37:50;;;;;;;13.15;9.23;;;;;;;;;;4994449;28;20541;-64
2022/12/30 00:40:15;;;;;;;13.48;8.80;;;;;;;;;;4994238;28;20387;-64
2022/12/30 00:45:26;;;;;;;12.43;8.80;;;;;;;;;;4994280;28;20029;-65
2022/12/30 00:47:52;;;;;;;13.45;9.82;;;;;;;;;;4994052;28;20023;-64
2022/12/30 00:58:29;;;;;;;14.52;8.88;;;;;;;;;;4994035;28;20442;-64
2022/12/30 01:00:55;;;;;;;13.80;9.13;;;;;;;;;;4994245;28;20034;-64
2022/12/30 01:03:21;;;;;;;12.40;8.75;;;;;;;;;;4994129;28;20499;-64
2022/12/30 01:05:46;;;;;;;13.20;8.90;;;;;;;;;;4994302;28;20026;-64
2022/12/30 01:08:12;;;;;;;11.85;8.10;;;;;;;;;;4993968;28;20105;-64
2022/12/30 01:10:39;;;;;;;12.38;8.52;;;;;;;;;;4993982;28;20467;-64
2022/12/30 01:13:05;;;;;;;12.05;8.45;;;;;;;;;;4993549;28;20092;-64
2022/12/30 01:15:30;;;;;;;11.73;8.07;;;;;;;;;;4993645;28;20034;-64
2022/12/30 01:17:56;;;;;;;13.57;7.95;;;;;;;;;;4993598;28;20034;-64
2022/12/30 01:20:21;;;;;;;12.57;8.43;;;;;;;;;;4993694;28;20097;-64
2022/12/30 01:22:47;;;;;;;13.25;9.15;;;;;;;;;;4993399;28;20049;-64
2022/12/30 01:25:12;;;;;;;11.55;8.45;;;;;;;;;;4993747;28;20030;-65
2022/12/30 01:27:38;;;;;;;12.07;8.15;;;;;;;;;;4993656;28;20026;-64
2022/12/30 01:30:04;;;;;;;11.55;8.02;;;;;;;;;;4993457;28;20387;-65
2022/12/30 01:32:30;;;;;;;10.77;8.10;;;;;;;;;;4993420;28;20104;-65
2022/12/30 01:34:56;;;;;;;11.23;8.48;;;;;;;;;;4993294;28;20029;-64
2022/12/30 01:37:22;;;;;;;10.75;8.20;;;;;;;;;;4993552;28;20089;-65
2022/12/30 01:39:48;;;;;;;12.20;8.20;;;;;;;;;;4993054;28;20034;-64
2022/12/30 01:42:24;;;;;;;10.80;7.90;;;;;;;;;;4993181;28;20081;-64
2022/12/30 01:44:57;;;;;;;13.63;8.07;;;;;;;;;;4992482;28;20041;-65
2022/12/30 01:47:41;;;;;;;13.63;7.95;;;;;;;;;;4993351;28;20018;-65
2022/12/30 01:50:12;;;;;;;11.43;8.15;;;;;;;;;;4992905;28;20036;-64
2022/12/30 01:52:43;;;;;;;11.48;8.20;;;;;;;;;;4993354;28;20058;-65
2022/12/30 01:55:14;;;;;;;11.77;8.35;;;;;;;;;;4993277;28;20027;-65
2022/12/30 01:57:42;;;;;;;11.93;8.50;;;;;;;;;;4993353;28;20375;-64
2022/12/30 02:00:08;;;;;;;12.02;8.30;;;;;;;;;;4992834;28;20062;-65
2022/12/30 02:02:34;;;;;;;11.35;8.07;;;;;;;;;;4992909;28;20030;-64
2022/12/30 02:05:01;;;;;;;10.65;8.00;;;;;;;;;;4992896;28;20022;-64
2022/12/30 02:07:33;;;;;;;12.38;8.35;;;;;;;;;;4993023;28;20022;-64
2022/12/30 02:09:59;;;;;;;9.93;7.90;;;;;;;;;;4992641;28;20068;-64
2022/12/30 02:12:25;;;;;;;11.75;7.82;;;;;;;;;;4992911;28;20041;-64
2022/12/30 02:14:52;;;;;;;9.25;7.28;;;;;;;;;;4993141;28;20023;-65
2022/12/30 02:17:27;;;;;;;11.75;7.93;;;;;;;;;;4992768;28;20077;-65
2022/12/30 02:20:17;;;;;;;11.85;7.88;;;;;;;;;;4992731;28;20062;-65
2022/12/30 02:23:05;;;;;;;;;;;;;;;;;;4993229;28;20101;-65
2022/12/30 02:25:59;;;;;;;10.50;7.28;;;;;;;;;;4993083;28;19936;-64
2022/12/30 02:28:52;;;;;;;9.65;7.25;;;;;;;;;;4993104;28;20029;-64
2022/12/30 02:31:59;;;;;;;10.02;7.88;;;;;;;;;;4992744;28;20064;-64
2022/12/30 02:34:36;;;;;;;12.13;7.63;;;;;;;;;;4913687;29;20087;-64
2022/12/30 02:37:29;;;;;;;11.02;7.85;;;;;;;;;;4913646;29;20109;-65
2022/12/30 02:40:21;;;;;;;9.30;7.18;;;;;;;;;;4972081;28;20048;-65
2022/12/30 02:45:49;;;;;;;11.13;7.85;;;;;;;;;;4992732;28;20096;-64
2022/12/30 02:48:17;;;;;;;9.30;7.30;;;;;;;;;;4992896;28;20425;-65
2022/12/30 02:53:33;;;;;;;10.25;7.47;;;;;;;;;;4992907;28;20131;-64
2022/12/30 02:55:59;;;;;;;9.30;7.30;;;;;;;;;;4995295;28;20125;-64
2022/12/30 02:58:29;;;;;;;8.40;6.63;;;;;;;;;;4996424;28;20109;-64
2022/12/30 03:04:20;;;;;;;10.57;7.57;;;;;;;;;;4992421;28;20385;-64
2022/12/30 03:06:55;;;;;;;11.88;7.50;;;;;;;;;;4995998;28;20497;-64
2022/12/30 03:09:39;;;;;;;12.05;7.43;;;;;;;;;;4995825;28;20026;-64
2022/12/30 03:12:34;;;;;;;10.75;7.78;;;;;;;;;;4996232;28;20026;-64
2022/12/30 03:15:08;;;;;;;10.50;7.28;;;;;;;;;;4993571;28;20038;-64
2022/12/30 03:17:39;;;;;;;12.18;7.28;;;;;;;;;;4995827;28;20022;-64
2022/12/30 03:20:12;;;;;;;10.10;7.32;;;;;;;;;;4995587;28;20046;-65
2022/12/30 03:28:11;;;;;;;10.23;7.30;;;;;;;;;;4995808;28;20056;-64
2022/12/30 03:30:48;;;;;;;8.50;6.97;;;;;;;;;;4995685;28;20034;-64
2022/12/30 03:33:14;;;;;;;9.73;6.82;;;;;;;;;;4995855;28;20027;-65
2022/12/30 03:35:52;;;;;;;9.40;7.43;;;;;;;;;;4995765;28;20508;-66
2022/12/30 03:38:25;;;;;;;10.10;6.88;;;;;;;;;;4995825;28;20057;-65
2022/12/30 03:40:54;;;;;;;9.63;7.55;;;;;;;;;;4995566;28;20034;-65
2022/12/30 03:43:20;;;;;;;12.40;7.55;;;;;;;;;;4995332;28;20027;-65
2022/12/30 03:45:45;;;;;;;8.13;6.60;;;;;;;;;;4995577;28;20030;-65
2022/12/30 03:48:11;;;;;;;9.40;7.10;;;;;;;;;;4995284;28;20106;-66
2022/12/30 03:50:36;;;;;;;9.18;6.65;;;;;;;;;;4995318;28;20027;-65
2022/12/30 03:53:02;;;;;;;10.35;6.93;;;;;;;;;;4995523;28;20026;-65
2022/12/30 03:55:28;;;;;;;9.13;6.63;;;;;;;;;;4995385;28;20370;-65
2022/12/30 03:57:53;;;;;;;8.80;7.43;;;;;;;;;;4995372;28;20080;-65
2022/12/30 04:00:22;;;;;;;11.75;6.95;;;;;;;;;;4994997;28;20030;-66
2022/12/30 04:02:47;;;;;;;10.15;6.95;;;;;;;;;;4994981;28;20026;-65
2022/12/30 04:05:13;;;;;;;9.23;7.15;;;;;;;;;;4994990;28;20032;-65
2022/12/30 04:07:39;;;;;;;10.65;7.80;;;;;;;;;;4994395;28;20105;-65
2022/12/30 04:10:05;;;;;;;9.38;7.20;;;;;;;;;;4994909;28;20410;-65
2022/12/30 04:12:31;;;;;;;10.75;7.20;;;;;;;;;;4995118;28;20085;-65
2022/12/30 04:14:57;;;;;;;9.25;6.95;;;;;;;;;;4995075;28;20022;-65
2022/12/30 04:17:22;;;;;;;10.13;7.43;;;;;;;;;;4994673;28;20493;-66
2022/12/30 04:19:48;;;;;;;11.32;6.82;;;;;;;;;;4994848;28;20034;-65
2022/12/30 04:22:13;;;;;;;9.13;7.07;;;;;;;;;;4994550;28;20122;-64
2022/12/30 04:24:39;;;;;;;8.80;6.60;;;;;;;;;;4994563;28;20023;-64
2022/12/30 04:27:04;;;;;;;8.88;6.50;;;;;;;;;;4994652;28;20088;-64
2022/12/30 04:29:30;;;;;;;8.15;6.47;;;;;;;;;;4994255;28;20121;-66
2022/12/30 04:31:55;;;;;;;9.88;7.10;;;;;;;;;;4994768;28;20097;-66
2022/12/30 04:34:21;;;;;;;10.02;7.32;;;;;;;;;;4994412;28;20030;-66
2022/12/30 04:36:46;;;;;;;9.00;6.32;;;;;;;;;;4994745;28;20026;-66
2022/12/30 04:39:12;;;;;;;8.68;6.68;;;;;;;;;;4994157;28;20064;-66
2022/12/30 04:41:37;;;;;;;9.38;6.60;;;;;;;;;;4994632;28;20101;-65
2022/12/30 04:44:04;;;;;;;8.18;6.43;;;;;;;;;;4994448;28;20503;-66
2022/12/30 04:46:30;;;;;;;9.65;6.90;;;;;;;;;;4994129;28;20394;-65
2022/12/30 04:48:55;;;;;;;8.68;6.72;;;;;;;;;;4994236;28;20027;-64
2022/12/30 04:51:21;;;;;;;8.43;6.75;;;;;;;;;;4994003;28;20356;-65
2022/12/30 04:53:47;;;;;;;9.07;6.80;;;;;;;;;;4993895;28;20036;-65
2022/12/30 04:56:13;;;;;;;9.43;6.97;;;;;;;;;;4993976;28;20062;-64
2022/12/30 04:58:38;;;;;;;8.75;7.03;;;;;;;;;;4994157;28;20026;-65
2022/12/30 05:01:04;;;;;;;8.93;6.47;;;;;;;;;;4993777;28;20049;-65
2022/12/30 05:03:30;;;;;;;7.97;6.18;;;;;;;;;;4994153;28;20157;-65
2022/12/30 05:05:56;;;;;;;8.57;6.47;;;;;;;;;;4993898;28;20053;-65
2022/12/30 05:08:21;;;;;;;8.30;6.30;;;;;;;;;;4993704;28;20046;-65
2022/12/30 05:10:47;;;;;;;8.18;6.35;;;;;;;;;;4993893;28;20192;-66
2022/12/30 05:13:12;;;;;;;7.50;6.20;;;;;;;;;;4993984;28;20474;-66
2022/12/30 05:15:38;;;;;;;8.90;6.80;;;;;;;;;;4993967;28;20351;-64
2022/12/30 05:18:03;;;;;;;8.00;6.18;;;;;;;;;;4993613;28;20437;-64
2022/12/30 05:20:29;;;;;;;8.02;6.00;;;;;;;;;;4993772;28;20037;-64
2022/12/30 05:22:55;;;;;;;8.95;6.60;;;;;;;;;;4993387;28;20410;-64
2022/12/30 05:28:04;;;;;;;8.88;6.40;;;;;;;;;;4993764;28;20169;-64
2022/12/30 05:30:30;;;;;;;8.38;6.60;;;;;;;;;;4993541;28;20113;-64
2022/12/30 05:32:56;;;;;;;8.75;7.00;;;;;;;;;;4993487;28;20383;-64
2022/12/30 05:35:21;;;;;;;7.60;6.22;;;;;;;;;;4993353;28;20105;-64
2022/12/30 05:37:47;;;;;;;8.00;6.60;;;;;;;;;;4993313;28;20234;-64
2022/12/30 05:40:13;;;;;;;10.05;6.43;;;;;;;;;;4993555;28;20037;-65
2022/12/30 05:42:39;;;;;;;9.32;6.90;;;;;;;;;;4993156;28;20026;-65
2022/12/30 05:45:07;;;;;;;9.93;6.25;;;;;;;;;;4993533;28;20065;-64
2022/12/30 05:47:33;;;;;;;9.82;6.35;;;;;;;;;;4993240;28;20026;-65
2022/12/30 05:49:59;;;;;;;8.43;6.13;;;;;;;;;;4992919;28;20030;-65
2022/12/30 05:52:24;;;;;;;7.45;6.13;;;;;;;;;;4993147;28;20027;-66
2022/12/30 05:54:50;;;;;;;9.07;6.40;;;;;;;;;;4993276;28;20022;-65
2022/12/30 05:57:15;;;;;;;7.10;6.10;;;;;;;;;;4992990;28;20489;-65
2022/12/30 05:59:41;;;;;;;8.85;6.30;;;;;;;;;;4993012;28;20478;-65
2022/12/30 06:02:07;;;;;;;9.25;6.18;;;;;;;;;;4993007;28;20122;-65
2022/12/30 06:04:32;;;;;;;7.85;6.07;;;;;;;;;;4993332;28;20023;-64
2022/12/30 06:06:58;;;;;;;7.68;5.78;;;;;;;;;;4992978;28;20026;-64
2022/12/30 06:09:23;;;;;;;7.82;6.53;;;;;;;;;;4992784;28;20030;-65
2022/12/30 06:11:49;;;;;;;7.35;5.80;;;;;;;;;;4992951;28;20168;-65
2022/12/30 06:14:15;;;;;;;6.60;5.70;;;;;;;;;;4993475;28;20034;-64
2022/12/30 06:16:42;;;;;;;8.15;6.00;;;;;;;;;;4992803;28;20039;-66
2022/12/30 06:19:07;;;;;;;8.40;5.80;;;;;;;;;;4992833;28;20505;-65
2022/12/30 06:21:34;;;;;;;9.10;6.03;;;;;;;;;;4992694;28;20031;-65
2022/12/30 06:23:59;;;;;;;8.18;6.30;;;;;;;;;;4991630;28;20293;-64
2022/12/30 06:26:25;;;;;;;7.93;6.10;;;;;;;;;;4993042;28;20046;-65
2022/12/30 06:28:51;;;;;;;9.70;6.18;;;;;;;;;;4992922;28;20026;-65
2022/12/30 06:31:16;;;;;;;8.00;5.72;;;;;;;;;;4995953;28;20027;-65
2022/12/30 06:33:42;;;;;;;7.30;5.85;;;;;;;;;;4996661;28;20023;-65
2022/12/30 06:36:08;;;;;;;7.75;6.30;;;;;;;;;;4996606;28;20026;-66
2022/12/30 06:38:33;;;;;;;7.40;5.78;;;;;;;;;;4996862;28;20049;-66
2022/12/30 06:40:59;;;;;;;8.00;6.18;;;;;;;;;;4996442;28;20026;-65
2022/12/30 06:43:25;;;;;;;8.43;6.00;;;;;;;;;;4996926;28;20541;-65
2022/12/30 06:45:50;;;;;;;9.05;6.05;;;;;;;;;;4996787;28;20454;-64
2022/12/30 06:48:16;;;;;;;9.00;6.20;;;;;;;;;;4996436;28;20465;-65
2022/12/30 06:50:41;;;;;;;8.18;6.18;;;;;;;;;;4996162;28;20041;-65
2022/12/30 06:53:07;;;;;;;7.90;6.13;;;;;;;;;;4996662;28;20276;-65
2022/12/30 06:55:33;;;;;;;8.20;5.80;;;;;;;;;;4996268;28;20185;-64
2022/12/30 06:57:58;;;;;;;8.77;6.25;;;;;;;;;;4996291;28;20037;-65
2022/12/30 07:00:24;;;;;;;8.27;6.07;;;;;;;;;;4995959;28;20030;-66
2022/12/30 07:02:49;;;;;;;7.25;5.57;;;;;;;;;;4996384;28;20117;-66
2022/12/30 07:05:15;;;;;;;7.28;5.68;;;;;;;;;;4996116;28;20037;-65
2022/12/30 07:07:41;;;;;;;8.38;5.70;;;;;;;;;;4996330;28;20089;-65
2022/12/30 07:10:07;;;;;;;6.97;5.68;;;;;;;;;;4995824;28;20023;-65
2022/12/30 07:12:32;;;;;;;8.07;5.85;;;;;;;;;;4996045;28;20034;-65
2022/12/30 07:14:58;;;;;;;8.68;5.78;;;;;;;;;;4996098;28;20022;-65
2022/12/30 07:17:23;;;;;;;6.70;5.57;;;;;;;;;;4996244;28;20532;-65
2022/12/30 07:19:49;;;;;;;6.82;5.63;;;;;;;;;;4995978;28;20018;-65
2022/12/30 07:22:16;;;;;;;8.38;5.72;;;;;;;;;;4995700;28;20042;-65
2022/12/30 07:24:42;;;;;;;7.15;5.40;;;;;;;;;;4995856;28;20466;-65
2022/12/30 07:27:10;;;;;;;8.27;5.82;;;;;;;;;;4996081;28;20034;-64
2022/12/30 07:29:36;;;;;;;6.60;5.35;;;;;;;;;;4995813;28;20080;-64
2022/12/30 07:32:02;;;;;;;6.50;5.30;;;;;;;;;;4995616;28;20445;-64
2022/12/30 07:34:27;;;;;;;7.90;5.43;;;;;;;;;;4994357;28;20030;-65
2022/12/30 07:36:53;;;;;;;8.23;5.90;;;;;;;;;;4995852;28;20164;-65
2022/12/30 07:39:18;;;;;;;8.35;5.70;;;;;;;;;;4995733;28;20045;-64
2022/12/30 07:41:44;;;;;;;7.88;5.43;;;;;;;;;;4994323;28;20404;-65
2022/12/30 07:44:10;;;;;;;7.40;5.75;;;;;;;;;;4994532;28;20478;-64
2022/12/30 07:46:36;;;;;;;7.45;5.75;;;;;;;;;;4995703;28;20026;-64
2022/12/30 07:49:02;;;;;;;7.55;5.57;;;;;;;;;;4995154;28;20110;-64
2022/12/30 07:51:28;;;;;;;7.93;6.05;;;;;;;;;;4995039;28;20125;-65
2022/12/30 07:53:53;;;;;;;8.10;5.60;;;;;;;;;;4995460;28;20026;-64
2022/12/30 07:56:19;;;;;;;6.03;5.10;;;;;;;;;;4995310;28;20030;-64
2022/12/30 07:58:44;;;;;;;7.43;5.20;;;;;;;;;;4995365;28;20034;-64
2022/12/30 08:01:12;;;;;;;7.35;5.40;;;;;;;;;;4995275;28;20049;-64
2022/12/30 08:03:38;;;;;;;7.28;5.82;;;;;;;;;;4995143;28;20674;-64
2022/12/30 08:06:10;;;;;;;7.85;5.38;;;;;;;;;;4995093;28;20034;-64
2022/12/30 08:08:36;;;;;;;6.97;5.50;;;;;;;;;;4994978;28;20031;-64
2022/12/30 08:11:02;;;;;;;6.30;5.32;;;;;;;;;;4994985;28;20037;-64
2022/12/30 08:13:34;;;;;;;7.47;5.60;;;;;;;;;;4995061;28;20086;-64
2022/12/30 08:16:06;;;;;;;7.63;5.55;;;;;;;;;;4994959;28;20030;-64
2022/12/30 08:18:31;;;;;;;6.15;5.22;;;;;;;;;;4994911;28;20026;-65
2022/12/30 08:21:02;;;;;;;7.22;5.45;;;;;;;;;;4994908;28;20536;-64
2022/12/30 08:23:29;;;;;;;6.50;5.20;;;;;;;;;;4994556;28;20395;-64
2022/12/30 08:25:55;;;;;;;7.80;5.35;;;;;;;;;;4994605;28;20027;-64
2022/12/30 08:28:20;;;;;;;6.57;5.35;;;;;;;;;;4994648;28;20033;-64
2022/12/30 08:30:46;;;;;;;7.38;5.70;;;;;;;;;;4994396;28;20062;-64
2022/12/30 08:33:11;;;;;;;6.30;5.35;;;;;;;;;;4994540;28;20057;-65
2022/12/30 08:35:37;;;;;;;6.88;5.22;;;;;;;;;;4994812;28;20034;-66
2022/12/30 08:38:03;;;;;;;6.70;5.63;;;;;;;;;;4994728;28;20022;-67
2022/12/30 08:40:33;;;;;;;7.25;5.35;;;;;;;;;;4994167;28;20022;-66
2022/12/30 08:42:59;;;;;;;6.97;5.10;;;;;;;;;;4994616;28;20030;-66
2022/12/30 08:45:24;;;;;;;6.75;5.10;;;;;;;;;;4994505;28;20033;-66
2022/12/30 08:47:50;;;;;;;7.60;5.93;;;;;;;;;;4994426;28;20026;-64
2022/12/30 08:50:16;;;;;;;7.53;5.50;;;;;;;;;;4993847;28;20062;-65
2022/12/30 08:52:41;;;;;;;6.22;4.97;;;;;;;;;;4993604;28;20038;-65
2022/12/30 08:55:07;;;;;;;7.60;5.65;;;;;;;;;;4993910;28;20034;-65
2022/12/30 08:57:36;;;;;;;7.45;5.43;;;;;;;;;;4994084;28;20109;-64
2022/12/30 09:00:03;;;;;;;7.18;5.15;;;;;;;;;;4993692;28;20037;-66
2022/12/30 09:02:28;;;;;;;7.95;5.72;;;;;;;;;;4993645;28;20478;-65
2022/12/30 09:04:54;;;;;;;5.80;4.88;;;;;;;;;;4993662;28;20088;-65
2022/12/30 09:07:19;;;;;;;6.50;5.22;;;;;;;;;;4993749;28;20023;-64
2022/12/30 09:09:45;;;;;;;6.93;5.22;;;;;;;;;;4993816;28;20126;-66
2022/12/30 09:12:11;;;;;;;5.60;4.72;;;;;;;;;;4993589;28;20105;-64
2022/12/30 09:14:36;;;;;;;7.70;4.78;;;;;;;;;;4993551;28;20030;-64
2022/12/30 09:17:02;;;;;;;7.53;5.20;;;;;;;;;;4993509;28;20022;-65
2022/12/30 09:19:28;;;;;;;7.88;5.32;;;;;;;;;;4993500;28;20030;-64
2022/12/30 09:21:53;;;;;;;6.32;5.15;;;;;;;;;;4993319;28;20133;-64
2022/12/30 09:24:19;;;;;;;6.43;5.22;;;;;;;;;;4993380;28;20054;-64
2022/12/30 09:26:45;;;;;;;5.93;5.20;;;;;;;;;;4993586;28;20080;-63
2022/12/30 09:29:10;;;;;;;6.32;5.13;;;;;;;;;;4993496;28;20034;-66
2022/12/30 09:31:36;;;;;;;6.45;5.20;;;;;;;;;;4993472;28;20113;-64
2022/12/30 09:34:01;;;;;;;6.00;5.00;;;;;;;;;;4993515;28;20433;-66
2022/12/30 09:36:27;;;;;;;6.75;5.60;;;;;;;;;;4993276;28;20053;-64
2022/12/30 09:38:52;;;;;;;7.25;5.20;;;;;;;;;;4993434;28;20073;-64
2022/12/30 09:44:33;;;;;;;6.00;5.00;;;;;;;;;;5002885;28;20088;-63
2022/12/30 09:47:20;;;;;;;6.53;4.88;;;;;;;;;;4992441;28;20304;-64
2022/12/30 09:49:53;;;;;;;6.55;5.38;;;;;;;;;;4993243;28;20049;-64
2022/12/30 09:53:01;;;;;;;6.05;4.97;;;;;;;;;;5004997;28;20057;-64
2022/12/30 09:55:45;;;;;;;5.72;5.00;;;;;;;;;;5010260;28;20101;-64
2022/12/30 09:58:14;;;;;;;6.07;4.70;;;;;;;;;;5009572;28;20072;-64
2022/12/30 10:00:40;;;;;;;7.25;4.85;;;;;;;;;;5009829;28;20030;-65
2022/12/30 10:03:25;;;;;;;7.15;5.13;;;;;;;;;;5008198;28;20424;-64
2022/12/30 10:06:12;;;;;;;5.85;4.70;;;;;;;;;;5006903;28;20030;-64
2022/12/30 10:09:24;;;;;;;5.50;4.82;;;;;;;;;;5007936;28;20097;-65
2022/12/30 10:12:20;;;;;;;6.15;4.72;;;;;;;;;;5008011;28;20030;-65
2022/12/30 10:15:07;;;;;;;6.53;4.80;;;;;;;;;;5007379;28;20101;-64
2022/12/30 10:18:05;;;;;;;5.50;4.78;;;;;;;;;;5007562;28;20478;-66
2022/12/30 10:20:48;;;;;;;5.60;4.57;;;;;;;;;;5008003;28;20026;-65
2022/12/30 10:23:33;;;;;;;6.30;4.57;;;;;;;;;;5011145;28;20409;-64
2022/12/30 10:26:22;;;;;;;6.55;4.90;;;;;;;;;;5010605;28;20453;-64
2022/12/30 10:29:01;;;;;;;6.15;4.75;;;;;;;;;;5010519;28;20367;-64
2022/12/30 10:31:31;;;;;;;7.25;5.15;;;;;;;;;;5000565;28;20373;-64
2022/12/30 10:34:10;;;;;;;6.78;5.65;;;;;;;;;;5008118;28;20034;-64
2022/12/30 10:37:01;;;;;;;5.97;5.00;;;;;;;;;;5012550;28;20398;-64
2022/12/30 10:39:32;;;;;;;6.82;4.82;;;;;;;;;;5000877;28;20057;-63
2022/12/30 10:42:07;;;;;;;6.18;4.75;;;;;;;;;;5002714;28;20363;-63
2022/12/30 10:44:42;;;;;;;5.07;4.53;;;;;;;;;;5002686;28;20042;-65
2022/12/30 10:47:10;;;;;;;7.00;5.15;;;;;;;;;;5000657;28;20117;-66
2022/12/30 10:50:08;;;;;;;5.65;4.60;;;;;;;;;;5002205;28;20185;-63
2022/12/30 10:52:34;;;;;;;7.30;5.28;;;;;;;;;;4975418;28;20069;-63
2022/12/30 10:54:59;;;;;;;92.95;84.00;;;;;;;;;;4991364;28;20382;-67
2022/12/30 10:57:31;;;;;;;17.73;11.82;;;;;;;;;;4998893;28;20103;-67
2022/12/30 10:59:58;;;;;;;9.60;7.63;;;;;;;;;;4991313;28;20141;-67
2022/12/30 11:02:33;;;;;;;11.23;6.95;;;;;;;;;;4999257;28;20026;-66
2022/12/30 11:05:01;;;;;;;7.95;6.43;;;;;;;;;;5004644;28;20498;-67
2022/12/30 11:07:26;;;;;;;6.32;5.60;;;;;;;;;;4995290;28;20030;-66
2022/12/30 11:09:52;;;;;;;8.57;5.38;;;;;;;;;;5001209;28;20038;-67
2022/12/30 11:15:05;;;;;;;6.82;4.90;;;;;;;;;;4998682;28;20085;-68
2022/12/30 11:17:46;;;;;;;6.75;4.68;;;;;;;;;;4994278;28;20022;-68
2022/12/30 11:20:24;;;;;;;6.50;4.63;;;;;;;;;;4995802;28;20030;-68
2022/12/30 11:22:52;;;;;;;6.55;4.53;;;;;;;;;;5003668;28;20048;-67
2022/12/30 11:25:26;;;;;;;6.35;3.90;;;;;;;;;;5005793;28;20150;-67
2022/12/30 11:27:54;;;;;;;6.60;4.20;;;;;;;;;;4994221;28;20033;-68
2022/12/30 11:30:58;;;;;;;7.28;3.85;;;;;;;;;;4993899;28;20037;-67
2022/12/30 11:33:29;;;;;;;5.93;4.00;;;;;;;;;;4923110;29;20477;-67
2022/12/30 11:36:12;;;;;;;4.97;3.70;;;;;;;;;;4993490;28;20026;-67
2022/12/30 11:38:40;;;;;;;5.07;3.35;;;;;;;;;;4999860;28;20509;-68
2022/12/30 11:41:18;;;;;;;5.70;3.65;;;;;;;;;;5002419;28;20030;-68
2022/12/30 11:43:49;;;;;;;6.10;3.70;;;;;;;;;;5006885;28;20076;-69
2022/12/30 11:46:21;;;;;;;6.00;3.10;;;;;;;;;;5005710;28;20062;-68
2022/12/30 11:48:51;;;;;;;5.05;3.20;;;;;;;;;;5013358;28;20477;-69
2022/12/30 11:51:21;;;;;;;3.58;3.25;;;;;;;;;;5013252;28;20103;-69
2022/12/30 11:53:48;;;;;;;8.77;3.40;;;;;;;;;;5012113;28;20026;-68
2022/12/30 11:56:21;;;;;;;6.05;3.78;;;;;;;;;;5012584;28;20026;-69
2022/12/30 11:58:47;;;;;;;4.18;3.45;;;;;;;;;;5013084;28;20021;-69
2022/12/30 12:01:12;;;;;;;4.78;3.38;;;;;;;;;;5003745;28;20080;-69
2022/12/30 12:03:52;;;;;;;7.40;3.42;;;;;;;;;;5003048;28;20351;-68
2022/12/30 12:06:17;;;;;;;11.23;3.30;;;;;;;;;;5012867;28;20382;-70
2022/12/30 12:08:49;;;;;;;5.55;3.60;;;;;;;;;;4994057;28;20018;-69
2022/12/30 12:11:22;;;;;;;5.60;3.40;;;;;;;;;;4996270;28;20038;-69
2022/12/30 12:13:50;;;;;;;8.15;5.30;;;;;;;;;;5012752;28;20508;-69
2022/12/30 12:16:29;;;;;;;13.63;8.70;;;;;;;;;;5013480;28;20393;-69
2022/12/30 12:19:06;;;;;;;14.90;10.70;;;;;;;;;;4983664;28;20041;-69
2022/12/30 12:21:35;;;;;;;22.20;13.02;;;;;;;;;;5006751;28;20034;-69
2022/12/30 12:24:03;;;;;;;27.75;14.23;;;;;;;;;;5004189;28;20490;-70
2022/12/30 12:26:36;;;;;;;18.45;13.32;;;;;;;;;;5001894;28;20026;-70
2022/12/30 12:29:01;;;;;;;23.23;13.88;;;;;;;;;;5001844;28;20105;-70
2022/12/30 12:31:33;;;;;;;20.90;13.85;;;;;;;;;;5001666;28;20113;-71
2022/12/30 12:34:37;;;;;;;19.20;12.68;;;;;;;;;;4993245;28;20038;-70
2022/12/30 12:37:30;;;;;;;16.90;12.20;;;;;;;;;;5000323;28;20504;-69
2022/12/30 12:40:26;;;;;;;18.05;12.48;;;;;;;;;;5012542;28;20038;-68
2022/12/30 12:43:16;;;;;;;18.17;12.80;;;;;;;;;;5012176;28;20088;-69
2022/12/30 12:45:51;;;;;;;18.58;12.18;;;;;;;;;;5011442;28;20021;-70
2022/12/30 12:48:40;;;;;;;19.40;11.80;;;;;;;;;;5012280;28;20030;-70
2022/12/30 12:51:24;;;;;;;20.15;12.38;;;;;;;;;;5012075;28;20583;-69
2022/12/30 12:54:08;;;;;;;22.27;13.95;;;;;;;;;;5012335;28;20133;-69
2022/12/30 12:57:03;;;;;;;21.42;13.93;;;;;;;;;;5010423;28;20057;-70
2022/12/30 12:59:40;;;;;;;21.60;12.43;;;;;;;;;;5012167;28;20199;-69
2022/12/30 13:02:19;;;;;;;18.38;12.27;;;;;;;;;;5010974;28;20632;-70
2022/12/30 13:05:07;;;;;;;17.75;11.85;;;;;;;;;;5012261;28;20422;-70
2022/12/30 13:08:03;;;;;;;17.55;11.88;;;;;;;;;;5011367;28;20044;-70
2022/12/30 13:10:32;;;;;;;19.02;12.32;;;;;;;;;;5012196;28;20429;-69
2022/12/30 13:13:04;;;;;;;19.27;12.45;;;;;;;;;;5011348;28;20042;-70
2022/12/30 13:15:34;;;;;;;18.83;12.10;;;;;;;;;;5011764;28;20029;-70
2022/12/30 13:18:05;;;;;;;16.52;11.93;;;;;;;;;;5012235;28;20029;-69
2022/12/30 13:20:45;;;;;;;16.60;12.40;;;;;;;;;;5011545;28;20121;-69
2022/12/30 13:23:14;;;;;;;17.92;12.65;;;;;;;;;;4991856;28;20073;-70
2022/12/30 13:25:49;;;;;;;19.85;12.93;;;;;;;;;;4991711;28;20478;-70
2022/12/30 13:28:23;;;;;;;18.45;12.95;;;;;;;;;;4991962;28;20038;-71
2022/12/30 13:31:13;;;;;;;21.20;13.13;;;;;;;;;;4991741;28;20029;-70
2022/12/30 13:33:57;;;;;;;20.67;13.25;;;;;;;;;;4991797;28;20164;-70
2022/12/30 13:36:50;;;;;;;20.17;13.85;;;;;;;;;;4997185;28;20045;-70
2022/12/30 13:39:44;;;;;;;20.75;13.80;;;;;;;;;;5002226;28;20464;-69
2022/12/30 13:42:34;;;;;;;20.85;14.80;;;;;;;;;;5001795;28;20070;-69
2022/12/30 13:45:00;;;;;;;20.73;14.25;;;;;;;;;;5009165;28;20164;-69
2022/12/30 13:47:28;;;;;;;24.38;14.82;;;;;;;;;;5003389;28;20168;-72
2022/12/30 13:49:55;;;;;;;24.58;15.25;;;;;;;;;;5001869;28;20034;-71
2022/12/30 13:52:26;;;;;;;25.08;15.48;;;;;;;;;;4999992;28;20042;-70
2022/12/30 13:54:54;;;;;;;22.38;15.43;;;;;;;;;;4997547;28;20026;-70
2022/12/30 13:57:37;;;;;;;24.80;16.45;;;;;;;;;;5003764;28;20034;-69
2022/12/30 14:00:13;;;;;;;25.55;16.10;;;;;;;;;;5011409;28;20045;-70
2022/12/30 14:02:48;;;;;;;26.55;16.33;;;;;;;;;;5010775;28;20394;-70
2022/12/30 14:05:54;;;;;;;29.30;17.50;;;;;;;;;;5011080;28;20613;-66
2022/12/30 14:08:40;;;;;;;26.48;16.73;;;;;;;;;;5002100;28;20026;-69
2022/12/30 14:11:10;;;;;;;26.48;17.92;;;;;;;;;;4996428;28;20034;-69
2022/12/30 14:13:38;;;;;;;31.45;17.52;;;;;;;;;;4991310;28;20032;-69
2022/12/30 14:16:05;;;;;;;27.17;18.13;;;;;;;;;;4991549;28;20031;-70
2022/12/30 14:18:51;;;;;;;28.05;16.80;;;;;;;;;;4991255;28;20037;-69
2022/12/30 14:21:19;;;;;;;30.13;18.23;;;;;;;;;;4991357;28;20054;-69
2022/12/30 14:23:46;;;;;;;27.20;18.27;;;;;;;;;;4990918;28;20129;-69
2022/12/30 14:26:18;;;;;;;26.27;17.40;;;;;;;;;;4991476;28;20041;-69
2022/12/30 14:29:04;;;;;;;28.77;18.02;;;;;;;;;;4991397;28;20390;-69
2022/12/30 14:31:36;;;;;;;27.42;18.50;;;;;;;;;;4997769;28;20661;-68
2022/12/30 14:34:06;;;;;;;28.17;17.75;;;;;;;;;;5010775;28;20424;-68
2022/12/30 14:36:38;;;;;;;28.00;19.25;;;;;;;;;;5010607;28;20072;-68
2022/12/30 14:39:15;;;;;;;29.08;18.42;;;;;;;;;;5010612;28;20038;-69
2022/12/30 14:41:44;;;;;;;26.60;18.85;;;;;;;;;;5010484;28;20508;-67
2022/12/30 14:44:12;;;;;;;30.45;18.75;;;;;;;;;;5010570;28;20126;-68
2022/12/30 14:46:41;;;;;;;29.85;19.13;;;;;;;;;;5010584;28;20076;-66
2022/12/30 14:49:25;;;;;;;27.20;19.05;;;;;;;;;;5010720;28;20030;-68
2022/12/30 14:52:11;;;;;;;31.77;19.17;;;;;;;;;;5012957;28;20485;-68
2022/12/30 14:55:13;;;;;;;32.55;21.27;;;;;;;;;;5013119;28;20045;-69
2022/12/30 14:57:41;;;;;;;39.70;21.42;;;;;;;;;;5013440;28;20037;-68
2022/12/30 15:00:10;;;;;;;34.90;21.38;;;;;;;;;;5014202;28;20025;-69
2022/12/30 15:02:52;;;;;;;38.00;23.67;;;;;;;;;;5013959;28;20037;-68
2022/12/30 15:05:36;;;;;;;34.00;22.17;;;;;;;;;;5012450;28;20026;-69
2022/12/30 15:08:13;;;;;;;34.50;21.30;;;;;;;;;;5014333;28;20022;-68
2022/12/30 15:10:56;;;;;;;39.33;23.30;;;;;;;;;;5013530;28;20033;-69
2022/12/30 15:13:41;;;;;;;35.30;22.58;;;;;;;;;;4996150;28;20583;-68
2022/12/30 15:16:25;;;;;;;38.00;23.55;;;;;;;;;;5011597;28;20417;-68
2022/12/30 15:18:52;;;;;;;38.65;23.13;;;;;;;;;;5013612;28;20053;-68
2022/12/30 15:21:17;;;;;;;38.78;23.25;;;;;;;;;;5014121;28;20026;-68
2022/12/30 15:23:58;;;;;;;38.83;22.70;;;;;;;;;;5011703;28;20390;-67
2022/12/30 15:26:25;;;;;;;43.70;23.17;;;;;;;;;;5013772;28;20029;-68
2022/12/30 15:28:52;;;;;;;38.22;23.33;;;;;;;;;;5013545;28;20030;-68
2022/12/30 15:31:20;;;;;;;37.80;23.27;;;;;;;;;;5012782;28;20052;-67
2022/12/30 15:33:53;;;;;;;37.47;24.73;;;;;;;;;;5011760;28;20512;-67
2022/12/30 15:36:19;;;;;;;38.13;24.23;;;;;;;;;;5011581;28;20080;-68
2022/12/30 15:38:45;;;;;;;42.20;25.10;;;;;;;;;;5011425;28;20033;-66
2022/12/30 15:41:14;;;;;;;42.25;25.13;;;;;;;;;;5013538;28;20390;-66
2022/12/30 15:43:40;;;;;;;37.00;23.15;;;;;;;;;;5013186;28;20133;-66
2022/12/30 15:46:06;;;;;;;40.95;23.73;;;;;;;;;;5013021;28;20113;-66
2022/12/30 15:48:37;;;;;;;35.03;22.48;;;;;;;;;;5010225;28;20434;-67
2022/12/30 15:51:20;;;;;;;40.08;22.73;;;;;;;;;;5013062;28;20029;-68
2022/12/30 15:54:05;;;;;;;35.00;22.58;;;;;;;;;;5013103;28;20099;-67